sensor_id;sensor_type;location;lat;lon;timestamp;P1;durP1;ratioP1;P2;durP2;ratioP2
22417;SDS011;11376;50.932;4.442;2023-05-21T00:01:06;5.60;;;2.03;;
22417;SDS011;11376;50.932;4.442;2023-05-21T00:03:32;5.10;;;2.30;;
22417;SDS011;11376;50.932;4.442;2023-05-21T00:05:59;4.90;;;2.00;;
22417;SDS011;11376;50.932;4.442;2023-05-21T00:08:27;6.85;;;2.03;;
22417;SDS011;11376;50.932;4.442;2023-05-21T00:10:53;5.00;;;2.40;;
22417;SDS011;11376;50.932;4.442;2023-05-21T00:13:19;6.97;;;2.30;;
22417;SDS011;11376;50.932;4.442;2023-05-21T00:15:45;4.03;;;2.08;;
22417;SDS011;11376;50.932;4.442;2023-05-21T00:18:11;7.70;;;2.25;;
22417;SDS011;11376;50.932;4.442;2023-05-21T00:20:36;5.47;;;2.45;;
22417;SDS011;11376;50.932;4.442;2023-05-21T00:23:02;5.20;;;2.33;;
22417;SDS011;11376;50.932;4.442;2023-05-21T00:25:28;4.03;;;2.10;;
22417;SDS011;11376;50.932;4.442;2023-05-21T00:27:54;7.38;;;2.53;;
22417;SDS011;11376;50.932;4.442;2023-05-21T00:30:20;4.53;;;2.22;;
22417;SDS011;11376;50.932;4.442;2023-05-21T00:32:46;7.25;;;2.80;;
22417;SDS011;11376;50.932;4.442;2023-05-21T00:35:12;7.40;;;2.60;;
22417;SDS011;11376;50.932;4.442;2023-05-21T00:37:37;8.02;;;2.88;;
22417;SDS011;11376;50.932;4.442;2023-05-21T00:40:04;7.78;;;2.53;;
22417;SDS011;11376;50.932;4.442;2023-05-21T00:42:32;5.80;;;2.65;;
22417;SDS011;11376;50.932;4.442;2023-05-21T00:45:03;5.95;;;2.47;;
22417;SDS011;11376;50.932;4.442;2023-05-21T00:47:30;8.48;;;3.00;;
22417;SDS011;11376;50.932;4.442;2023-05-21T00:49:56;7.68;;;2.38;;
22417;SDS011;11376;50.932;4.442;2023-05-21T00:52:22;4.47;;;2.33;;
22417;SDS011;11376;50.932;4.442;2023-05-21T00:54:50;5.80;;;2.70;;
22417;SDS011;11376;50.932;4.442;2023-05-21T00:57:21;4.55;;;2.50;;
22417;SDS011;11376;50.932;4.442;2023-05-21T00:59:49;7.43;;;2.90;;
22417;SDS011;11376;50.932;4.442;2023-05-21T01:02:16;5.33;;;2.30;;
22417;SDS011;11376;50.932;4.442;2023-05-21T01:04:45;5.75;;;2.40;;
22417;SDS011;11376;50.932;4.442;2023-05-21T01:07:11;4.90;;;2.30;;
22417;SDS011;11376;50.932;4.442;2023-05-21T01:09:37;5.95;;;2.47;;
22417;SDS011;11376;50.932;4.442;2023-05-21T01:12:04;5.10;;;2.30;;
22417;SDS011;11376;50.932;4.442;2023-05-21T01:14:31;6.77;;;2.70;;
22417;SDS011;11376;50.932;4.442;2023-05-21T01:16:58;6.77;;;2.93;;
22417;SDS011;11376;50.932;4.442;2023-05-21T01:19:26;5.18;;;2.60;;
22417;SDS011;11376;50.932;4.442;2023-05-21T01:21:56;4.80;;;2.93;;
22417;SDS011;11376;50.932;4.442;2023-05-21T01:24:25;6.20;;;2.40;;
22417;SDS011;11376;50.932;4.442;2023-05-21T01:26:51;7.53;;;2.77;;
22417;SDS011;11376;50.932;4.442;2023-05-21T01:29:17;6.67;;;2.73;;
22417;SDS011;11376;50.932;4.442;2023-05-21T01:34:45;6.43;;;2.97;;
22417;SDS011;11376;50.932;4.442;2023-05-21T01:43:00;5.28;;;2.60;;
22417;SDS011;11376;50.932;4.442;2023-05-21T01:45:29;5.85;;;2.97;;
22417;SDS011;11376;50.932;4.442;2023-05-21T01:47:56;6.33;;;2.90;;
22417;SDS011;11376;50.932;4.442;2023-05-21T01:50:22;5.68;;;3.08;;
22417;SDS011;11376;50.932;4.442;2023-05-21T01:52:54;6.13;;;2.70;;
22417;SDS011;11376;50.932;4.442;2023-05-21T01:55:25;4.53;;;2.80;;
22417;SDS011;11376;50.932;4.442;2023-05-21T01:57:54;6.20;;;3.20;;
22417;SDS011;11376;50.932;4.442;2023-05-21T02:00:21;7.07;;;3.03;;
22417;SDS011;11376;50.932;4.442;2023-05-21T02:02:48;6.57;;;3.10;;
22417;SDS011;11376;50.932;4.442;2023-05-21T02:05:14;5.67;;;2.87;;
22417;SDS011;11376;50.932;4.442;2023-05-21T02:07:40;8.77;;;2.97;;
22417;SDS011;11376;50.932;4.442;2023-05-21T02:10:08;7.80;;;3.40;;
22417;SDS011;11376;50.932;4.442;2023-05-21T02:12:34;5.03;;;2.90;;
22417;SDS011;11376;50.932;4.442;2023-05-21T02:15:00;6.57;;;3.13;;
22417;SDS011;11376;50.932;4.442;2023-05-21T02:17:26;6.77;;;3.27;;
22417;SDS011;11376;50.932;4.442;2023-05-21T02:19:55;5.90;;;3.23;;
22417;SDS011;11376;50.932;4.442;2023-05-21T02:22:21;5.38;;;3.28;;
22417;SDS011;11376;50.932;4.442;2023-05-21T02:24:47;8.68;;;3.17;;
22417;SDS011;11376;50.932;4.442;2023-05-21T02:27:13;7.15;;;3.22;;
22417;SDS011;11376;50.932;4.442;2023-05-21T02:29:41;5.63;;;3.05;;
22417;SDS011;11376;50.932;4.442;2023-05-21T02:32:07;6.80;;;3.60;;
22417;SDS011;11376;50.932;4.442;2023-05-21T02:34:33;10.03;;;3.53;;
22417;SDS011;11376;50.932;4.442;2023-05-21T02:37:01;5.10;;;3.10;;
22417;SDS011;11376;50.932;4.442;2023-05-21T02:39:27;7.00;;;3.50;;
22417;SDS011;11376;50.932;4.442;2023-05-21T02:41:52;6.30;;;3.20;;
22417;SDS011;11376;50.932;4.442;2023-05-21T02:44:18;7.57;;;3.53;;
22417;SDS011;11376;50.932;4.442;2023-05-21T02:46:44;5.67;;;3.37;;
22417;SDS011;11376;50.932;4.442;2023-05-21T02:49:10;7.30;;;3.70;;
22417;SDS011;11376;50.932;4.442;2023-05-21T02:51:36;8.30;;;4.00;;
22417;SDS011;11376;50.932;4.442;2023-05-21T02:54:02;7.20;;;3.80;;
22417;SDS011;11376;50.932;4.442;2023-05-21T02:56:28;6.57;;;3.60;;
22417;SDS011;11376;50.932;4.442;2023-05-21T02:58:53;5.87;;;3.60;;
22417;SDS011;11376;50.932;4.442;2023-05-21T03:01:19;7.47;;;3.90;;
22417;SDS011;11376;50.932;4.442;2023-05-21T03:03:45;8.43;;;3.90;;
22417;SDS011;11376;50.932;4.442;2023-05-21T03:06:10;7.23;;;4.10;;
22417;SDS011;11376;50.932;4.442;2023-05-21T03:08:36;7.87;;;4.20;;
22417;SDS011;11376;50.932;4.442;2023-05-21T03:11:02;8.55;;;3.67;;
22417;SDS011;11376;50.932;4.442;2023-05-21T03:13:28;7.68;;;3.75;;
22417;SDS011;11376;50.932;4.442;2023-05-21T03:15:54;7.77;;;3.90;;
22417;SDS011;11376;50.932;4.442;2023-05-21T03:18:21;9.73;;;4.47;;
22417;SDS011;11376;50.932;4.442;2023-05-21T03:20:47;7.17;;;4.10;;
22417;SDS011;11376;50.932;4.442;2023-05-21T03:23:12;7.60;;;4.20;;
22417;SDS011;11376;50.932;4.442;2023-05-21T03:25:38;8.23;;;3.97;;
22417;SDS011;11376;50.932;4.442;2023-05-21T03:28:04;10.33;;;4.27;;
22417;SDS011;11376;50.932;4.442;2023-05-21T03:30:31;8.20;;;4.40;;
22417;SDS011;11376;50.932;4.442;2023-05-21T03:32:56;8.67;;;4.60;;
22417;SDS011;11376;50.932;4.442;2023-05-21T03:35:23;7.67;;;4.30;;
22417;SDS011;11376;50.932;4.442;2023-05-21T03:37:49;7.13;;;4.53;;
22417;SDS011;11376;50.932;4.442;2023-05-21T03:40:15;7.43;;;3.90;;
22417;SDS011;11376;50.932;4.442;2023-05-21T03:42:41;7.30;;;4.33;;
22417;SDS011;11376;50.932;4.442;2023-05-21T03:45:07;7.00;;;4.43;;
22417;SDS011;11376;50.932;4.442;2023-05-21T03:47:33;8.23;;;4.50;;
22417;SDS011;11376;50.932;4.442;2023-05-21T03:50:00;9.37;;;4.60;;
22417;SDS011;11376;50.932;4.442;2023-05-21T03:52:26;8.30;;;4.40;;
22417;SDS011;11376;50.932;4.442;2023-05-21T03:54:52;8.43;;;4.80;;
22417;SDS011;11376;50.932;4.442;2023-05-21T03:57:17;11.13;;;4.80;;
22417;SDS011;11376;50.932;4.442;2023-05-21T03:59:43;7.72;;;4.63;;
22417;SDS011;11376;50.932;4.442;2023-05-21T04:02:09;9.03;;;4.83;;
22417;SDS011;11376;50.932;4.442;2023-05-21T04:04:35;8.43;;;4.70;;
22417;SDS011;11376;50.932;4.442;2023-05-21T04:07:01;8.50;;;4.80;;
22417;SDS011;11376;50.932;4.442;2023-05-21T04:09:28;10.40;;;4.57;;
22417;SDS011;11376;50.932;4.442;2023-05-21T04:11:54;8.13;;;4.60;;
22417;SDS011;11376;50.932;4.442;2023-05-21T04:14:23;8.50;;;4.80;;
22417;SDS011;11376;50.932;4.442;2023-05-21T04:16:49;9.30;;;4.80;;
22417;SDS011;11376;50.932;4.442;2023-05-21T04:19:14;7.93;;;5.13;;
22417;SDS011;11376;50.932;4.442;2023-05-21T04:21:40;6.93;;;4.43;;
22417;SDS011;11376;50.932;4.442;2023-05-21T04:24:08;8.93;;;5.50;;
22417;SDS011;11376;50.932;4.442;2023-05-21T04:26:34;9.13;;;5.27;;
22417;SDS011;11376;50.932;4.442;2023-05-21T04:29:00;9.10;;;5.00;;
22417;SDS011;11376;50.932;4.442;2023-05-21T04:31:29;11.30;;;5.60;;
22417;SDS011;11376;50.932;4.442;2023-05-21T04:33:56;10.43;;;5.20;;
22417;SDS011;11376;50.932;4.442;2023-05-21T04:36:23;8.07;;;5.20;;
22417;SDS011;11376;50.932;4.442;2023-05-21T04:38:49;10.53;;;5.70;;
22417;SDS011;11376;50.932;4.442;2023-05-21T04:41:14;10.33;;;5.03;;
22417;SDS011;11376;50.932;4.442;2023-05-21T04:43:43;11.13;;;5.50;;
22417;SDS011;11376;50.932;4.442;2023-05-21T04:46:08;9.10;;;4.93;;
22417;SDS011;11376;50.932;4.442;2023-05-21T04:48:34;8.43;;;5.05;;
22417;SDS011;11376;50.932;4.442;2023-05-21T04:51:00;8.15;;;4.85;;
22417;SDS011;11376;50.932;4.442;2023-05-21T04:53:29;9.18;;;5.10;;
22417;SDS011;11376;50.932;4.442;2023-05-21T04:55:55;9.88;;;5.22;;
22417;SDS011;11376;50.932;4.442;2023-05-21T04:58:23;11.20;;;5.35;;
22417;SDS011;11376;50.932;4.442;2023-05-21T05:00:50;7.70;;;4.67;;
22417;SDS011;11376;50.932;4.442;2023-05-21T05:03:17;7.53;;;4.68;;
22417;SDS011;11376;50.932;4.442;2023-05-21T05:05:43;9.23;;;4.65;;
22417;SDS011;11376;50.932;4.442;2023-05-21T05:08:08;8.60;;;5.07;;
22417;SDS011;11376;50.932;4.442;2023-05-21T05:10:34;10.02;;;4.88;;
22417;SDS011;11376;50.932;4.442;2023-05-21T05:13:00;8.90;;;5.30;;
22417;SDS011;11376;50.932;4.442;2023-05-21T05:15:26;8.93;;;5.03;;
22417;SDS011;11376;50.932;4.442;2023-05-21T05:17:52;7.78;;;4.80;;
22417;SDS011;11376;50.932;4.442;2023-05-21T05:20:18;7.88;;;4.88;;
22417;SDS011;11376;50.932;4.442;2023-05-21T05:22:44;7.93;;;4.83;;
22417;SDS011;11376;50.932;4.442;2023-05-21T05:25:09;11.32;;;4.45;;
22417;SDS011;11376;50.932;4.442;2023-05-21T05:27:35;10.07;;;4.80;;
22417;SDS011;11376;50.932;4.442;2023-05-21T05:30:01;8.38;;;4.57;;
22417;SDS011;11376;50.932;4.442;2023-05-21T05:32:27;7.28;;;4.65;;
22417;SDS011;11376;50.932;4.442;2023-05-21T05:34:52;10.50;;;5.05;;
22417;SDS011;11376;50.932;4.442;2023-05-21T05:37:18;9.55;;;4.93;;
22417;SDS011;11376;50.932;4.442;2023-05-21T05:39:44;7.53;;;4.55;;
22417;SDS011;11376;50.932;4.442;2023-05-21T05:42:10;7.35;;;4.70;;
22417;SDS011;11376;50.932;4.442;2023-05-21T05:44:35;7.03;;;4.80;;
22417;SDS011;11376;50.932;4.442;2023-05-21T05:47:01;6.78;;;4.13;;
22417;SDS011;11376;50.932;4.442;2023-05-21T05:49:27;9.73;;;4.70;;
22417;SDS011;11376;50.932;4.442;2023-05-21T05:51:53;9.68;;;4.90;;
22417;SDS011;11376;50.932;4.442;2023-05-21T05:54:19;9.50;;;4.43;;
22417;SDS011;11376;50.932;4.442;2023-05-21T05:56:44;8.65;;;4.53;;
22417;SDS011;11376;50.932;4.442;2023-05-21T05:59:10;12.30;;;4.35;;
22417;SDS011;11376;50.932;4.442;2023-05-21T06:01:36;7.57;;;4.55;;
22417;SDS011;11376;50.932;4.442;2023-05-21T06:04:02;7.03;;;4.25;;
22417;SDS011;11376;50.932;4.442;2023-05-21T06:06:28;6.95;;;4.43;;
22417;SDS011;11376;50.932;4.442;2023-05-21T06:08:53;8.63;;;4.20;;
22417;SDS011;11376;50.932;4.442;2023-05-21T06:11:19;5.82;;;3.97;;
22417;SDS011;11376;50.932;4.442;2023-05-21T06:13:45;7.90;;;4.63;;
22417;SDS011;11376;50.932;4.442;2023-05-21T06:16:11;8.18;;;4.53;;
22417;SDS011;11376;50.932;4.442;2023-05-21T06:18:37;6.53;;;3.97;;
22417;SDS011;11376;50.932;4.442;2023-05-21T06:21:03;7.00;;;4.13;;
22417;SDS011;11376;50.932;4.442;2023-05-21T06:23:29;6.47;;;4.55;;
22417;SDS011;11376;50.932;4.442;2023-05-21T06:25:56;8.75;;;4.38;;
22417;SDS011;11376;50.932;4.442;2023-05-21T06:28:22;10.35;;;4.47;;
22417;SDS011;11376;50.932;4.442;2023-05-21T06:30:47;9.82;;;4.68;;
22417;SDS011;11376;50.932;4.442;2023-05-21T06:33:13;11.10;;;4.32;;
22417;SDS011;11376;50.932;4.442;2023-05-21T06:35:39;7.43;;;4.20;;
22417;SDS011;11376;50.932;4.442;2023-05-21T06:38:05;8.75;;;4.65;;
22417;SDS011;11376;50.932;4.442;2023-05-21T06:40:30;7.55;;;4.13;;
22417;SDS011;11376;50.932;4.442;2023-05-21T06:42:56;7.38;;;4.10;;
22417;SDS011;11376;50.932;4.442;2023-05-21T06:45:23;6.63;;;4.43;;
22417;SDS011;11376;50.932;4.442;2023-05-21T06:47:49;11.32;;;4.40;;
22417;SDS011;11376;50.932;4.442;2023-05-21T06:50:15;7.78;;;4.80;;
22417;SDS011;11376;50.932;4.442;2023-05-21T06:52:41;6.43;;;4.10;;
22417;SDS011;11376;50.932;4.442;2023-05-21T06:55:07;10.40;;;4.70;;
22417;SDS011;11376;50.932;4.442;2023-05-21T06:57:33;6.85;;;4.63;;
22417;SDS011;11376;50.932;4.442;2023-05-21T06:59:59;10.93;;;4.40;;
22417;SDS011;11376;50.932;4.442;2023-05-21T07:02:24;12.52;;;4.35;;
22417;SDS011;11376;50.932;4.442;2023-05-21T07:04:51;7.35;;;4.50;;
22417;SDS011;11376;50.932;4.442;2023-05-21T07:07:17;10.77;;;4.65;;
22417;SDS011;11376;50.932;4.442;2023-05-21T07:09:43;7.22;;;4.72;;
22417;SDS011;11376;50.932;4.442;2023-05-21T07:12:09;7.30;;;4.68;;
22417;SDS011;11376;50.932;4.442;2023-05-21T07:14:34;6.65;;;4.80;;
22417;SDS011;11376;50.932;4.442;2023-05-21T07:17:00;8.45;;;4.80;;
22417;SDS011;11376;50.932;4.442;2023-05-21T07:19:26;8.55;;;4.70;;
22417;SDS011;11376;50.932;4.442;2023-05-21T07:21:51;9.23;;;4.35;;
22417;SDS011;11376;50.932;4.442;2023-05-21T07:24:17;7.63;;;4.80;;
22417;SDS011;11376;50.932;4.442;2023-05-21T07:26:43;7.97;;;4.30;;
22417;SDS011;11376;50.932;4.442;2023-05-21T07:29:09;7.82;;;4.60;;
22417;SDS011;11376;50.932;4.442;2023-05-21T07:31:34;7.15;;;4.75;;
22417;SDS011;11376;50.932;4.442;2023-05-21T07:34:00;7.53;;;4.53;;
22417;SDS011;11376;50.932;4.442;2023-05-21T07:36:26;7.88;;;4.88;;
22417;SDS011;11376;50.932;4.442;2023-05-21T07:38:52;6.32;;;4.45;;
22417;SDS011;11376;50.932;4.442;2023-05-21T07:41:17;11.50;;;4.72;;
22417;SDS011;11376;50.932;4.442;2023-05-21T07:43:43;11.18;;;4.65;;
22417;SDS011;11376;50.932;4.442;2023-05-21T07:46:09;8.40;;;4.72;;
22417;SDS011;11376;50.932;4.442;2023-05-21T07:48:35;8.82;;;5.10;;
22417;SDS011;11376;50.932;4.442;2023-05-21T07:51:01;8.38;;;4.63;;
22417;SDS011;11376;50.932;4.442;2023-05-21T07:53:27;9.70;;;5.57;;
22417;SDS011;11376;50.932;4.442;2023-05-21T07:55:56;9.07;;;5.00;;
22417;SDS011;11376;50.932;4.442;2023-05-21T07:58:23;8.77;;;5.40;;
22417;SDS011;11376;50.932;4.442;2023-05-21T08:00:48;10.40;;;4.97;;
22417;SDS011;11376;50.932;4.442;2023-05-21T08:03:15;10.32;;;5.22;;
22417;SDS011;11376;50.932;4.442;2023-05-21T08:05:42;7.00;;;4.88;;
22417;SDS011;11376;50.932;4.442;2023-05-21T08:08:18;8.90;;;5.32;;
22417;SDS011;11376;50.932;4.442;2023-05-21T08:10:44;7.70;;;5.00;;
22417;SDS011;11376;50.932;4.442;2023-05-21T08:13:10;10.23;;;5.60;;
22417;SDS011;11376;50.932;4.442;2023-05-21T08:15:36;8.38;;;5.20;;
22417;SDS011;11376;50.932;4.442;2023-05-21T08:18:02;8.63;;;5.65;;
22417;SDS011;11376;50.932;4.442;2023-05-21T08:20:29;8.27;;;5.03;;
22417;SDS011;11376;50.932;4.442;2023-05-21T08:22:56;8.38;;;5.70;;
22417;SDS011;11376;50.932;4.442;2023-05-21T08:25:22;9.05;;;5.13;;
22417;SDS011;11376;50.932;4.442;2023-05-21T08:27:48;8.10;;;5.45;;
22417;SDS011;11376;50.932;4.442;2023-05-21T08:30:14;8.43;;;5.30;;
22417;SDS011;11376;50.932;4.442;2023-05-21T08:32:40;9.63;;;5.63;;
22417;SDS011;11376;50.932;4.442;2023-05-21T08:35:06;10.45;;;5.70;;
22417;SDS011;11376;50.932;4.442;2023-05-21T08:37:32;8.18;;;5.35;;
22417;SDS011;11376;50.932;4.442;2023-05-21T08:39:58;9.48;;;5.80;;
22417;SDS011;11376;50.932;4.442;2023-05-21T08:44:50;10.68;;;5.85;;
22417;SDS011;11376;50.932;4.442;2023-05-21T08:47:19;10.43;;;6.13;;
22417;SDS011;11376;50.932;4.442;2023-05-21T08:49:50;10.18;;;6.03;;
22417;SDS011;11376;50.932;4.442;2023-05-21T08:52:16;9.32;;;5.90;;
22417;SDS011;11376;50.932;4.442;2023-05-21T08:54:43;10.48;;;6.28;;
22417;SDS011;11376;50.932;4.442;2023-05-21T08:57:09;10.50;;;6.20;;
22417;SDS011;11376;50.932;4.442;2023-05-21T08:59:36;11.20;;;6.72;;
22417;SDS011;11376;50.932;4.442;2023-05-21T09:02:04;11.63;;;6.20;;
22417;SDS011;11376;50.932;4.442;2023-05-21T09:04:29;11.15;;;6.55;;
22417;SDS011;11376;50.932;4.442;2023-05-21T09:06:56;11.98;;;6.40;;
22417;SDS011;11376;50.932;4.442;2023-05-21T09:09:33;11.00;;;6.50;;
22417;SDS011;11376;50.932;4.442;2023-05-21T09:12:04;10.52;;;7.05;;
22417;SDS011;11376;50.932;4.442;2023-05-21T09:14:30;12.25;;;7.35;;
22417;SDS011;11376;50.932;4.442;2023-05-21T09:16:56;14.07;;;6.90;;
22417;SDS011;11376;50.932;4.442;2023-05-21T09:19:22;10.63;;;7.00;;
22417;SDS011;11376;50.932;4.442;2023-05-21T09:21:51;9.63;;;6.13;;
22417;SDS011;11376;50.932;4.442;2023-05-21T09:24:17;12.43;;;6.85;;
22417;SDS011;11376;50.932;4.442;2023-05-21T09:26:46;10.88;;;6.45;;
22417;SDS011;11376;50.932;4.442;2023-05-21T09:29:12;10.82;;;6.63;;
22417;SDS011;11376;50.932;4.442;2023-05-21T09:31:41;10.68;;;6.63;;
22417;SDS011;11376;50.932;4.442;2023-05-21T09:34:10;9.27;;;6.35;;
22417;SDS011;11376;50.932;4.442;2023-05-21T09:36:37;14.00;;;6.93;;
22417;SDS011;11376;50.932;4.442;2023-05-21T09:39:03;11.85;;;6.78;;
22417;SDS011;11376;50.932;4.442;2023-05-21T09:41:30;12.73;;;7.15;;
22417;SDS011;11376;50.932;4.442;2023-05-21T09:44:00;10.90;;;7.10;;
22417;SDS011;11376;50.932;4.442;2023-05-21T09:46:26;10.15;;;6.60;;
22417;SDS011;11376;50.932;4.442;2023-05-21T09:49:01;10.43;;;7.32;;
22417;SDS011;11376;50.932;4.442;2023-05-21T09:51:27;11.30;;;7.03;;
22417;SDS011;11376;50.932;4.442;2023-05-21T09:53:54;10.35;;;6.40;;
22417;SDS011;11376;50.932;4.442;2023-05-21T09:56:28;10.85;;;6.55;;
22417;SDS011;11376;50.932;4.442;2023-05-21T09:58:59;12.82;;;7.18;;
22417;SDS011;11376;50.932;4.442;2023-05-21T10:01:29;12.60;;;7.07;;
22417;SDS011;11376;50.932;4.442;2023-05-21T10:03:56;12.55;;;7.07;;
22417;SDS011;11376;50.932;4.442;2023-05-21T10:06:26;9.43;;;6.47;;
22417;SDS011;11376;50.932;4.442;2023-05-21T10:08:54;12.50;;;6.97;;
22417;SDS011;11376;50.932;4.442;2023-05-21T10:11:28;13.50;;;7.60;;
22417;SDS011;11376;50.932;4.442;2023-05-21T10:14:04;12.23;;;7.45;;
22417;SDS011;11376;50.932;4.442;2023-05-21T10:16:31;12.63;;;7.07;;
22417;SDS011;11376;50.932;4.442;2023-05-21T10:18:58;14.52;;;7.45;;
22417;SDS011;11376;50.932;4.442;2023-05-21T10:21:25;10.68;;;6.80;;
22417;SDS011;11376;50.932;4.442;2023-05-21T10:23:52;10.70;;;7.78;;
22417;SDS011;11376;50.932;4.442;2023-05-21T10:26:20;10.15;;;6.90;;
22417;SDS011;11376;50.932;4.442;2023-05-21T10:28:48;11.60;;;7.15;;
22417;SDS011;11376;50.932;4.442;2023-05-21T10:31:19;11.32;;;7.45;;
22417;SDS011;11376;50.932;4.442;2023-05-21T10:33:45;10.93;;;7.78;;
22417;SDS011;11376;50.932;4.442;2023-05-21T10:36:12;12.77;;;7.68;;
22417;SDS011;11376;50.932;4.442;2023-05-21T10:38:42;11.40;;;7.75;;
22417;SDS011;11376;50.932;4.442;2023-05-21T10:41:08;11.13;;;8.07;;
22417;SDS011;11376;50.932;4.442;2023-05-21T10:54:46;14.73;;;8.10;;
22417;SDS011;11376;50.932;4.442;2023-05-21T10:57:31;12.93;;;8.00;;
22417;SDS011;11376;50.932;4.442;2023-05-21T10:59:58;12.50;;;8.30;;
22417;SDS011;11376;50.932;4.442;2023-05-21T11:02:25;11.48;;;8.32;;
22417;SDS011;11376;50.932;4.442;2023-05-21T11:05:00;13.90;;;8.35;;
22417;SDS011;11376;50.932;4.442;2023-05-21T11:10:43;15.90;;;9.20;;
22417;SDS011;11376;50.932;4.442;2023-05-21T11:13:15;14.23;;;8.57;;
22417;SDS011;11376;50.932;4.442;2023-05-21T11:26:25;11.48;;;7.78;;
22417;SDS011;11376;50.932;4.442;2023-05-21T11:29:05;11.43;;;8.63;;
22417;SDS011;11376;50.932;4.442;2023-05-21T11:31:32;14.55;;;8.85;;
22417;SDS011;11376;50.932;4.442;2023-05-21T11:36:40;11.23;;;8.63;;
22417;SDS011;11376;50.932;4.442;2023-05-21T11:39:12;11.38;;;8.48;;
22417;SDS011;11376;50.932;4.442;2023-05-21T11:41:59;14.15;;;8.23;;
22417;SDS011;11376;50.932;4.442;2023-05-21T11:47:11;11.93;;;8.43;;
22417;SDS011;11376;50.932;4.442;2023-05-21T11:49:45;13.88;;;9.25;;
22417;SDS011;11376;50.932;4.442;2023-05-21T11:52:11;12.48;;;9.20;;
22417;SDS011;11376;50.932;4.442;2023-05-21T11:54:47;12.23;;;8.95;;
22417;SDS011;11376;50.932;4.442;2023-05-21T11:57:19;13.98;;;8.90;;
22417;SDS011;11376;50.932;4.442;2023-05-21T11:59:46;12.05;;;9.15;;
22417;SDS011;11376;50.932;4.442;2023-05-21T12:02:13;12.43;;;8.63;;
22417;SDS011;11376;50.932;4.442;2023-05-21T12:04:40;13.43;;;9.05;;
22417;SDS011;11376;50.932;4.442;2023-05-21T12:07:07;12.70;;;8.45;;
22417;SDS011;11376;50.932;4.442;2023-05-21T12:09:52;12.45;;;8.30;;
22417;SDS011;11376;50.932;4.442;2023-05-21T12:12:18;11.10;;;8.82;;
22417;SDS011;11376;50.932;4.442;2023-05-21T12:14:46;12.95;;;8.57;;
22417;SDS011;11376;50.932;4.442;2023-05-21T12:17:14;14.35;;;8.40;;
22417;SDS011;11376;50.932;4.442;2023-05-21T12:19:41;11.65;;;8.90;;
22417;SDS011;11376;50.932;4.442;2023-05-21T12:22:07;14.70;;;8.27;;
22417;SDS011;11376;50.932;4.442;2023-05-21T12:24:33;11.25;;;7.82;;
22417;SDS011;11376;50.932;4.442;2023-05-21T12:27:01;12.30;;;8.65;;
22417;SDS011;11376;50.932;4.442;2023-05-21T12:29:28;12.70;;;8.65;;
22417;SDS011;11376;50.932;4.442;2023-05-21T12:31:59;13.35;;;8.52;;
22417;SDS011;11376;50.932;4.442;2023-05-21T12:34:42;12.18;;;8.57;;
22417;SDS011;11376;50.932;4.442;2023-05-21T12:37:30;12.57;;;8.20;;
22417;SDS011;11376;50.932;4.442;2023-05-21T12:39:59;13.25;;;9.23;;
22417;SDS011;11376;50.932;4.442;2023-05-21T12:42:27;14.13;;;8.63;;
22417;SDS011;11376;50.932;4.442;2023-05-21T12:44:58;12.63;;;8.80;;
22417;SDS011;11376;50.932;4.442;2023-05-21T12:47:25;12.27;;;8.60;;
22417;SDS011;11376;50.932;4.442;2023-05-21T12:49:58;13.90;;;9.25;;
22417;SDS011;11376;50.932;4.442;2023-05-21T12:52:25;12.30;;;8.43;;
22417;SDS011;11376;50.932;4.442;2023-05-21T12:54:53;13.93;;;8.75;;
22417;SDS011;11376;50.932;4.442;2023-05-21T12:57:26;12.77;;;8.48;;
22417;SDS011;11376;50.932;4.442;2023-05-21T12:59:59;12.52;;;7.90;;
22417;SDS011;11376;50.932;4.442;2023-05-21T13:04:57;11.38;;;8.27;;
22417;SDS011;11376;50.932;4.442;2023-05-21T13:07:29;12.57;;;8.38;;
22417;SDS011;11376;50.932;4.442;2023-05-21T13:09:56;10.80;;;8.07;;
22417;SDS011;11376;50.932;4.442;2023-05-21T13:12:23;10.88;;;8.40;;
22417;SDS011;11376;50.932;4.442;2023-05-21T13:14:50;14.85;;;8.88;;
22417;SDS011;11376;50.932;4.442;2023-05-21T13:17:18;12.50;;;8.18;;
22417;SDS011;11376;50.932;4.442;2023-05-21T13:20:06;12.82;;;7.55;;
22417;SDS011;11376;50.932;4.442;2023-05-21T13:25:16;11.90;;;7.93;;
22417;SDS011;11376;50.932;4.442;2023-05-21T13:27:48;14.98;;;8.80;;
22417;SDS011;11376;50.932;4.442;2023-05-21T13:30:16;10.82;;;8.10;;
22417;SDS011;11376;50.932;4.442;2023-05-21T13:32:42;11.40;;;8.32;;
22417;SDS011;11376;50.932;4.442;2023-05-21T13:35:09;12.10;;;7.68;;
22417;SDS011;11376;50.932;4.442;2023-05-21T13:37:37;10.80;;;8.00;;
22417;SDS011;11376;50.932;4.442;2023-05-21T13:40:04;11.97;;;7.10;;
22417;SDS011;11376;50.932;4.442;2023-05-21T13:42:32;13.95;;;8.38;;
22417;SDS011;11376;50.932;4.442;2023-05-21T13:44:58;9.13;;;7.38;;
22417;SDS011;11376;50.932;4.442;2023-05-21T13:47:24;9.00;;;7.20;;
22417;SDS011;11376;50.932;4.442;2023-05-21T13:49:50;11.20;;;7.95;;
22417;SDS011;11376;50.932;4.442;2023-05-21T13:52:16;12.45;;;8.38;;
22417;SDS011;11376;50.932;4.442;2023-05-21T13:54:42;11.45;;;7.32;;
22417;SDS011;11376;50.932;4.442;2023-05-21T13:57:08;12.00;;;7.45;;
22417;SDS011;11376;50.932;4.442;2023-05-21T13:59:33;10.70;;;7.22;;
22417;SDS011;11376;50.932;4.442;2023-05-21T14:01:59;11.35;;;7.68;;
22417;SDS011;11376;50.932;4.442;2023-05-21T14:04:25;11.57;;;7.80;;
22417;SDS011;11376;50.932;4.442;2023-05-21T14:06:51;13.30;;;7.90;;
22417;SDS011;11376;50.932;4.442;2023-05-21T14:09:17;11.20;;;7.75;;
22417;SDS011;11376;50.932;4.442;2023-05-21T14:11:43;11.10;;;7.80;;
22417;SDS011;11376;50.932;4.442;2023-05-21T14:14:09;11.97;;;8.30;;
22417;SDS011;11376;50.932;4.442;2023-05-21T14:16:35;12.32;;;8.25;;
22417;SDS011;11376;50.932;4.442;2023-05-21T14:19:01;10.82;;;8.02;;
22417;SDS011;11376;50.932;4.442;2023-05-21T14:21:27;10.43;;;7.70;;
22417;SDS011;11376;50.932;4.442;2023-05-21T14:23:53;12.85;;;8.10;;
22417;SDS011;11376;50.932;4.442;2023-05-21T14:26:19;14.18;;;8.98;;
22417;SDS011;11376;50.932;4.442;2023-05-21T14:28:45;13.40;;;8.57;;
22417;SDS011;11376;50.932;4.442;2023-05-21T14:31:11;10.00;;;7.68;;
22417;SDS011;11376;50.932;4.442;2023-05-21T14:33:37;9.20;;;7.13;;
22417;SDS011;11376;50.932;4.442;2023-05-21T14:36:04;11.50;;;8.02;;
22417;SDS011;11376;50.932;4.442;2023-05-21T14:38:30;16.10;;;8.55;;
22417;SDS011;11376;50.932;4.442;2023-05-21T14:40:56;12.88;;;7.57;;
22417;SDS011;11376;50.932;4.442;2023-05-21T14:43:21;11.18;;;7.88;;
22417;SDS011;11376;50.932;4.442;2023-05-21T14:45:48;12.75;;;7.65;;
22417;SDS011;11376;50.932;4.442;2023-05-21T14:48:17;12.70;;;7.68;;
22417;SDS011;11376;50.932;4.442;2023-05-21T14:50:46;12.23;;;8.45;;
22417;SDS011;11376;50.932;4.442;2023-05-21T14:53:15;11.35;;;8.43;;
22417;SDS011;11376;50.932;4.442;2023-05-21T14:55:42;11.40;;;8.23;;
22417;SDS011;11376;50.932;4.442;2023-05-21T14:58:08;11.45;;;7.88;;
22417;SDS011;11376;50.932;4.442;2023-05-21T15:00:34;13.70;;;8.45;;
22417;SDS011;11376;50.932;4.442;2023-05-21T15:03:01;13.45;;;8.07;;
22417;SDS011;11376;50.932;4.442;2023-05-21T15:05:27;12.10;;;8.23;;
22417;SDS011;11376;50.932;4.442;2023-05-21T15:07:53;14.88;;;7.93;;
22417;SDS011;11376;50.932;4.442;2023-05-21T15:10:20;11.68;;;7.75;;
22417;SDS011;11376;50.932;4.442;2023-05-21T15:12:46;10.65;;;7.68;;
22417;SDS011;11376;50.932;4.442;2023-05-21T15:15:12;13.30;;;7.85;;
22417;SDS011;11376;50.932;4.442;2023-05-21T15:17:38;13.20;;;8.30;;
22417;SDS011;11376;50.932;4.442;2023-05-21T15:20:05;13.43;;;9.27;;
22417;SDS011;11376;50.932;4.442;2023-05-21T15:22:31;15.38;;;8.50;;
22417;SDS011;11376;50.932;4.442;2023-05-21T15:24:57;11.40;;;8.13;;
22417;SDS011;11376;50.932;4.442;2023-05-21T15:27:23;9.95;;;7.57;;